Hlavní strana
METAR-TAF:

METAR-TAF

Letiště :

Gwinnett County Airport (Briscoe Field)

Lawrenceville, Georgie, Spojené státy americké

zeměpisná šířka: 33-58-41N, zeměpisná délka: 083-57-45W, výška: 323 m

Aktuální stav počasí

Zpráva byla vytvořena před 16 minutami, v 02:06 UTC
Bezvětří
Teplota 5°C
Vlhkost vzduchu 100%
Tlak 1020 hPa
Viditelnost: 6.4 km
Skoro jasno ve výšce 300 ft
Polojasno ve výšce 600 ft
Zataženo ve výšce 1200 ft
slabý déšť, kouřmo

METAR: KLZU 190206Z AUTO 00000KT 4SM -RA BR FEW003 SCT006 OVC012 05/05 A3011 RMK AO2 P0000

Čas: 21:22 (02:22 UTC)


TAF: chybějící

Stav a předpovědi počasí z více než 4 000 letišť (zprávy METAR a TAF).

Červené a žluté tečky na mapě představují dostupné meteorologické stanice.

Když kurzor umístíte na tečku, zobrazí se název stanice.

Pak kliknutím zobrazíte stav a předpověď počasí.

Chcete-li změnit mapu, kliknutím na zelené tlačítko se znaménkem +mapu přiblížíte, kliknutím na zelené tlačítko se znaménkem – mapu oddálíte a kliknutím na zelené šipky přejdete na sousední mapy.


METAR-TAF: